createdAt,value
2019-03-21T00:00:49.506Z,2.83
2019-03-21T00:03:00.032Z,2.89
2019-03-21T00:05:52.498Z,2.97
2019-03-21T00:08:44.964Z,3.01
2019-03-21T00:11:35.492Z,3.09
2019-03-21T00:13:46.301Z,3.05
2019-03-21T00:16:38.807Z,2.93
2019-03-21T00:18:49.631Z,2.82
2019-03-21T00:21:00.452Z,2.60
2019-03-21T00:23:11.357Z,2.54
2019-03-21T00:26:03.932Z,2.55
2019-03-21T00:28:14.706Z,2.56
2019-03-21T00:31:07.198Z,2.65
2019-03-21T00:33:18.010Z,2.75
2019-03-21T00:35:28.966Z,2.85
2019-03-21T00:37:39.761Z,2.85
2019-03-21T00:39:50.591Z,2.90
2019-03-21T00:42:01.401Z,2.85
2019-03-21T00:44:18.020Z,2.77
2019-03-21T00:46:24.911Z,2.59
2019-03-21T00:48:35.725Z,2.44
2019-03-21T00:51:06.472Z,2.34
2019-03-21T00:53:17.341Z,2.34
2019-03-21T00:56:09.815Z,2.33
2019-03-21T00:58:20.604Z,2.26
2019-03-21T01:01:13.076Z,2.12
2019-03-21T01:03:24.075Z,2.12
2019-03-21T01:05:34.875Z,2.12
2019-03-21T01:07:45.894Z,2.03
2019-03-21T01:09:56.695Z,2.02
2019-03-21T01:12:07.606Z,1.94
2019-03-21T01:14:29.206Z,1.94
2019-03-21T01:16:31.146Z,1.95
2019-03-21T01:19:23.616Z,1.93
2019-03-21T01:21:34.434Z,1.97
2019-03-21T01:23:45.241Z,1.95
2019-03-21T01:26:37.735Z,1.93
2019-03-21T01:28:48.521Z,1.88
2019-03-21T01:30:59.326Z,1.93
2019-03-21T01:33:10.138Z,1.88
2019-03-21T01:35:20.967Z,1.84
2019-03-21T01:37:31.876Z,1.82
2019-03-21T01:39:42.735Z,1.75
2019-03-21T01:41:53.588Z,1.66
2019-03-21T01:44:04.414Z,1.63
2019-03-21T01:46:56.886Z,1.57
2019-03-21T01:49:07.685Z,1.56
2019-03-21T01:51:18.607Z,1.54
2019-03-21T01:53:29.431Z,1.57
2019-03-21T01:55:40.240Z,1.61
2019-03-21T01:57:51.057Z,1.66
2019-03-21T02:00:43.525Z,1.71
2019-03-21T02:03:35.995Z,1.70
2019-03-21T02:05:46.822Z,1.71
2019-03-21T02:07:57.661Z,1.72
2019-03-21T02:10:50.119Z,1.74
2019-03-21T02:13:00.932Z,1.74
2019-03-21T02:15:53.398Z,1.73
2019-03-21T02:18:45.859Z,1.66
2019-03-21T02:20:56.666Z,1.59
2019-03-21T02:23:07.467Z,1.60
2019-03-21T02:25:39.181Z,1.63
2019-03-21T02:27:50.100Z,1.60
2019-03-21T02:30:00.951Z,1.50
2019-03-21T02:32:11.749Z,1.40
2019-03-21T02:34:22.586Z,1.38
2019-03-21T02:36:33.402Z,1.41
2019-03-21T02:38:44.217Z,1.42
2019-03-21T02:41:36.685Z,1.40
2019-03-21T02:43:47.508Z,1.36
2019-03-21T02:45:58.344Z,1.21
2019-03-21T02:48:09.188Z,1.16
2019-03-21T02:51:01.671Z,1.11
2019-03-21T02:53:12.475Z,1.05
2019-03-21T02:56:04.940Z,1.11
2019-03-21T02:58:15.841Z,1.15
2019-03-21T03:01:08.297Z,1.13
2019-03-21T03:03:19.124Z,1.14
2019-03-21T03:06:11.666Z,1.17
2019-03-21T03:08:22.478Z,1.20
2019-03-21T03:10:53.668Z,1.13
2019-03-21T03:13:04.555Z,1.06
2019-03-21T03:15:35.646Z,0.99
2019-03-21T03:17:46.542Z,0.97
2019-03-21T03:19:57.361Z,0.99
2019-03-21T03:22:08.161Z,1.03
2019-03-21T03:25:00.637Z,1.07
2019-03-21T03:27:11.532Z,1.09
2019-03-21T03:29:22.353Z,1.12
2019-03-21T03:31:33.167Z,1.10
2019-03-21T03:33:43.977Z,1.10
2019-03-21T03:35:54.872Z,1.12
2019-03-21T03:38:05.596Z,1.05
2019-03-21T03:40:58.080Z,0.95
2019-03-21T03:43:08.868Z,0.90
2019-03-21T03:46:01.347Z,0.77
2019-03-21T03:48:12.252Z,0.78
2019-03-21T03:50:23.062Z,0.76
2019-03-21T03:52:33.903Z,0.75
2019-03-21T03:54:44.677Z,0.76
2019-03-21T03:56:55.497Z,0.76
2019-03-21T03:59:47.938Z,0.76
2019-03-21T04:01:58.761Z,0.76
2019-03-21T04:04:09.714Z,0.73
2019-03-21T04:06:20.612Z,0.73
2019-03-21T04:08:31.505Z,0.69
2019-03-21T04:11:24.001Z,0.62
2019-03-21T04:13:34.799Z,0.62
2019-03-21T04:15:52.429Z,0.61
2019-03-21T04:17:58.534Z,0.60
2019-03-21T04:20:50.977Z,0.60
2019-03-21T04:23:01.905Z,0.54
2019-03-21T04:25:54.366Z,0.51
2019-03-21T04:28:05.181Z,0.56
2019-03-21T04:30:35.922Z,0.44
2019-03-21T04:32:46.728Z,0.45
2019-03-21T04:34:57.533Z,0.49
2019-03-21T04:37:08.382Z,0.51
2019-03-21T04:39:19.185Z,0.50
2019-03-21T04:41:29.980Z,0.53
2019-03-21T04:43:40.805Z,0.59
2019-03-21T04:46:02.556Z,0.63
2019-03-21T04:48:04.419Z,0.62
2019-03-21T04:50:54.966Z,0.68
2019-03-21T04:53:05.782Z,0.73
2019-03-21T04:55:16.578Z,0.75
2019-03-21T04:57:27.364Z,0.78
2019-03-21T04:59:38.219Z,0.75
2019-03-21T05:01:49.024Z,0.78
2019-03-21T05:03:59.866Z,0.80
2019-03-21T05:06:10.669Z,0.81
2019-03-21T05:08:21.507Z,0.74
2019-03-21T05:10:32.309Z,0.58
2019-03-21T05:12:43.109Z,0.43
2019-03-21T05:14:53.925Z,0.29
2019-03-21T05:17:04.712Z,0.33
2019-03-21T05:19:15.545Z,0.27
2019-03-21T05:21:26.341Z,0.28
2019-03-21T05:23:37.151Z,0.30
2019-03-21T05:25:47.971Z,0.36
2019-03-21T05:27:58.787Z,0.41
2019-03-21T05:30:51.262Z,0.50
2019-03-21T05:33:02.279Z,0.56
2019-03-21T05:35:13.141Z,0.47
2019-03-21T05:37:23.937Z,0.41
2019-03-21T05:39:34.775Z,0.42
2019-03-21T05:41:45.583Z,0.46
2019-03-21T05:44:38.101Z,0.57
2019-03-21T05:46:48.913Z,0.68
2019-03-21T05:48:59.840Z,0.96
2019-03-21T05:51:10.638Z,1.23
2019-03-21T05:53:21.454Z,1.52
2019-03-21T05:55:32.281Z,1.84
2019-03-21T05:57:43.177Z,2.08
2019-03-21T05:59:54.001Z,2.25
2019-03-21T06:02:05.005Z,2.34
2019-03-21T06:04:15.809Z,2.47
2019-03-21T06:07:06.383Z,2.62
2019-03-21T06:09:58.893Z,2.79
2019-03-21T06:12:09.715Z,2.78
2019-03-21T06:14:20.595Z,2.54
2019-03-21T06:16:37.552Z,2.29
2019-03-21T06:19:23.938Z,2.19
2019-03-21T06:22:16.391Z,2.16
2019-03-21T06:25:06.968Z,2.32
2019-03-21T06:27:37.675Z,2.53
2019-03-21T06:29:48.475Z,2.58
2019-03-21T06:31:59.322Z,2.49
2019-03-21T06:34:10.127Z,2.40
2019-03-21T06:36:20.972Z,2.33
2019-03-21T06:38:31.764Z,2.37
2019-03-21T06:40:42.605Z,2.39
2019-03-21T06:42:53.447Z,2.43
2019-03-21T06:45:48.163Z,2.35
2019-03-21T06:47:58.677Z,2.42
2019-03-21T06:50:09.577Z,3.04
2019-03-21T06:52:20.406Z,3.81
2019-03-21T06:54:31.211Z,4.54
2019-03-21T06:56:42.188Z,5.22
2019-03-21T06:58:53.003Z,5.85
2019-03-21T07:01:03.838Z,6.34
2019-03-21T07:03:16.415Z,6.85
2019-03-21T07:05:27.358Z,7.32
2019-03-21T07:07:38.281Z,7.83
2019-03-21T07:09:49.105Z,8.35
2019-03-21T07:11:59.932Z,8.66
2019-03-21T07:14:10.777Z,8.98
2019-03-21T07:16:21.556Z,9.38
2019-03-21T07:18:32.400Z,9.73
2019-03-21T07:20:43.220Z,10.00
2019-03-21T07:22:54.040Z,10.23
2019-03-21T07:25:46.470Z,10.46
2019-03-21T07:27:57.317Z,10.82
2019-03-21T07:30:49.755Z,11.18
2019-03-21T07:33:00.577Z,11.38
2019-03-21T07:35:11.467Z,11.56
2019-03-21T07:37:22.448Z,11.75
2019-03-21T07:39:33.239Z,12.05
2019-03-21T07:41:44.034Z,12.16
2019-03-21T07:43:54.977Z,12.28
2019-03-21T07:46:05.837Z,12.27
2019-03-21T07:48:16.611Z,12.23
2019-03-21T07:50:27.414Z,12.08
2019-03-21T07:52:38.317Z,12.30
2019-03-21T07:54:49.134Z,12.33
2019-03-21T07:57:00.051Z,12.48
2019-03-21T07:59:10.892Z,12.92
2019-03-21T08:01:21.738Z,13.92
2019-03-21T08:03:32.561Z,14.46
2019-03-21T08:05:43.380Z,14.43
2019-03-21T08:07:54.178Z,14.30
2019-03-21T08:10:46.637Z,14.29
2019-03-21T08:13:17.315Z,14.25
2019-03-21T08:15:28.151Z,14.12
2019-03-21T08:17:39.075Z,14.05
2019-03-21T08:19:49.938Z,14.23
2019-03-21T08:22:00.750Z,14.33
2019-03-21T08:24:11.550Z,14.26
2019-03-21T08:26:22.384Z,14.16
2019-03-21T08:28:33.277Z,14.28
2019-03-21T08:31:25.773Z,14.35
2019-03-21T08:33:36.598Z,14.60
2019-03-21T08:35:47.445Z,14.70
2019-03-21T08:37:58.249Z,14.79
2019-03-21T08:40:09.189Z,14.62
2019-03-21T08:42:39.872Z,14.70
2019-03-21T08:44:50.677Z,14.56
2019-03-21T08:47:01.662Z,14.89
2019-03-21T08:49:12.487Z,14.99
2019-03-21T08:51:23.446Z,14.82
2019-03-21T08:53:34.265Z,14.84
2019-03-21T08:55:45.105Z,14.88
2019-03-21T08:57:55.915Z,15.38
2019-03-21T09:00:48.372Z,15.67
2019-03-21T09:02:59.162Z,15.57
2019-03-21T09:08:02.539Z,15.55
2019-03-21T09:10:13.570Z,15.57
2019-03-21T09:13:06.024Z,15.47
2019-03-21T09:15:16.833Z,15.67
2019-03-21T09:17:27.692Z,15.82
2019-03-21T09:19:38.502Z,15.92
2019-03-21T09:21:49.319Z,15.75
2019-03-21T09:24:00.209Z,15.96
2019-03-21T09:26:11.026Z,16.06
2019-03-21T09:28:21.852Z,16.04
2019-03-21T09:30:32.701Z,16.04
2019-03-21T09:32:43.614Z,15.86
2019-03-21T09:34:54.430Z,15.83
2019-03-21T09:37:05.291Z,15.78
2019-03-21T09:39:16.151Z,15.65
2019-03-21T09:41:27.067Z,15.30
2019-03-21T09:43:37.908Z,14.97
2019-03-21T09:45:48.714Z,15.05
2019-03-21T09:47:59.546Z,14.68
2019-03-21T09:50:51.990Z,14.41
2019-03-21T09:53:02.807Z,14.36
2019-03-21T09:55:13.597Z,14.56
2019-03-21T09:57:24.418Z,14.54
2019-03-21T09:59:35.221Z,14.38
2019-03-21T10:01:46.008Z,14.35
2019-03-21T10:03:56.843Z,14.36
2019-03-21T10:08:59.876Z,14.50
2019-03-21T10:11:52.343Z,14.70
2019-03-21T10:14:44.814Z,15.08
2019-03-21T10:16:55.623Z,15.10
2019-03-21T10:19:06.428Z,15.30
2019-03-21T10:21:17.230Z,15.23
2019-03-21T10:23:28.055Z,15.05
2019-03-21T10:25:38.891Z,15.07
2019-03-21T10:27:49.680Z,14.83
2019-03-21T10:30:00.525Z,14.82
2019-03-21T10:32:14.475Z,14.93
2019-03-21T10:34:24.063Z,14.94
2019-03-21T10:36:34.880Z,15.22
2019-03-21T10:38:45.710Z,15.48
2019-03-21T10:40:56.610Z,15.65
2019-03-21T10:43:10.314Z,15.85
2019-03-21T10:45:20.353Z,15.94
2019-03-21T10:47:31.179Z,16.04
2019-03-21T10:49:42.019Z,16.25
2019-03-21T10:51:55.273Z,16.23
2019-03-21T10:54:05.516Z,16.17
2019-03-21T10:56:16.344Z,16.04
2019-03-21T10:58:27.190Z,16.08
2019-03-21T11:00:38.228Z,15.87
2019-03-21T11:02:49.037Z,15.80
2019-03-21T11:04:59.829Z,15.73
2019-03-21T11:07:10.466Z,15.70
2019-03-21T11:09:21.335Z,15.73
2019-03-21T11:11:32.153Z,15.81
2019-03-21T11:13:42.945Z,15.67
2019-03-21T11:15:53.796Z,15.84
2019-03-21T11:18:11.280Z,15.87
2019-03-21T11:20:41.948Z,15.87
2019-03-21T11:22:52.817Z,15.84
2019-03-21T11:25:45.285Z,15.92
2019-03-21T11:27:56.197Z,15.92
2019-03-21T11:30:15.585Z,16.06
2019-03-21T11:34:37.279Z,15.82
2019-03-21T11:36:48.153Z,15.87
2019-03-21T11:39:18.824Z,16.00
2019-03-21T11:41:29.659Z,16.14
2019-03-21T11:43:40.465Z,16.04
2019-03-21T11:45:51.371Z,15.99
2019-03-21T11:48:43.887Z,15.99
2019-03-21T11:50:54.702Z,15.89
2019-03-21T11:53:05.503Z,15.82
2019-03-21T11:55:16.439Z,15.79
2019-03-21T11:57:27.265Z,15.85
2019-03-21T11:59:50.756Z,15.88
2019-03-21T12:01:50.807Z,15.86
2019-03-21T12:04:01.635Z,15.88
2019-03-21T12:06:12.447Z,15.86
2019-03-21T12:08:23.274Z,15.81
2019-03-21T12:10:34.088Z,15.85
2019-03-21T12:12:44.923Z,15.81
2019-03-21T12:14:55.729Z,15.84
2019-03-21T12:17:06.550Z,15.84
2019-03-21T12:19:17.386Z,15.76
2019-03-21T12:21:28.181Z,15.77
2019-03-21T12:23:39.005Z,15.65
2019-03-21T12:25:49.795Z,15.61
2019-03-21T12:28:01.707Z,15.70
2019-03-21T12:30:33.988Z,15.71
2019-03-21T12:32:44.790Z,15.72
2019-03-21T12:34:55.614Z,15.77
2019-03-21T12:37:06.423Z,15.76
2019-03-21T12:39:17.399Z,15.62
2019-03-21T12:41:28.202Z,15.60
2019-03-21T12:43:39.102Z,15.54
2019-03-21T12:45:49.915Z,15.61
2019-03-21T12:48:00.823Z,15.66
2019-03-21T12:50:11.748Z,15.56
2019-03-21T12:52:22.551Z,15.54
2019-03-21T12:54:33.379Z,15.62
2019-03-21T12:56:44.229Z,15.61
2019-03-21T12:58:55.045Z,15.67
2019-03-21T13:01:05.865Z,15.73
2019-03-21T13:03:16.659Z,15.76
2019-03-21T13:06:09.131Z,15.69
2019-03-21T13:08:20.011Z,15.66
2019-03-21T13:12:49.508Z,15.85
2019-03-21T13:15:00.375Z,15.85
2019-03-21T13:17:11.265Z,15.90
2019-03-21T13:19:22.083Z,15.90
2019-03-21T13:21:32.916Z,15.88
2019-03-21T13:23:43.725Z,15.92
2019-03-21T13:25:54.702Z,15.91
2019-03-21T13:28:05.722Z,15.93
2019-03-21T13:30:16.760Z,15.92
2019-03-21T13:32:27.563Z,15.92
2019-03-21T13:34:38.384Z,15.94
2019-03-21T13:36:49.227Z,15.92
2019-03-21T13:39:19.936Z,15.84
2019-03-21T13:41:30.787Z,15.84
2019-03-21T13:43:41.629Z,16.01
2019-03-21T13:45:52.444Z,16.07
2019-03-21T13:48:03.396Z,16.07
2019-03-21T13:50:14.327Z,16.07
2019-03-21T13:52:25.123Z,15.96
2019-03-21T13:54:36.095Z,15.98
2019-03-21T13:56:47.016Z,16.09
2019-03-21T13:58:57.830Z,16.31
2019-03-21T14:01:08.706Z,16.40
2019-03-21T14:03:24.936Z,16.36
2019-03-21T14:05:32.249Z,16.45
2019-03-21T14:07:43.098Z,16.48
2019-03-21T14:09:53.899Z,16.51
2019-03-21T14:12:04.724Z,16.55
2019-03-21T14:14:15.561Z,16.40
2019-03-21T14:16:26.386Z,16.41
2019-03-21T14:18:37.184Z,16.40
2019-03-21T14:20:47.995Z,16.42
2019-03-21T14:22:58.821Z,16.38
2019-03-21T14:25:29.491Z,16.46
2019-03-21T14:27:40.339Z,16.51
2019-03-21T14:30:00.755Z,16.57
2019-03-21T14:32:03.898Z,16.52
2019-03-21T14:34:14.714Z,16.48
2019-03-21T14:36:25.518Z,16.44
2019-03-21T14:38:36.382Z,16.48
2019-03-21T14:40:47.204Z,16.49
2019-03-21T14:42:58.029Z,16.48
2019-03-21T14:45:50.493Z,16.50
2019-03-21T14:48:01.302Z,16.42
2019-03-21T14:50:53.751Z,16.36
2019-03-21T14:53:04.573Z,16.41
2019-03-21T14:55:15.407Z,16.40
2019-03-21T14:57:26.221Z,16.35
2019-03-21T14:59:37.028Z,16.32
2019-03-21T15:01:47.848Z,16.31
2019-03-21T15:03:58.669Z,16.30
2019-03-21T15:06:09.461Z,16.34
2019-03-21T15:08:20.283Z,16.36
2019-03-21T15:10:31.168Z,16.34
2019-03-21T15:12:41.984Z,16.35
2019-03-21T15:14:52.822Z,16.28
2019-03-21T15:17:03.646Z,16.24
2019-03-21T15:19:14.481Z,16.26
2019-03-21T15:21:25.306Z,16.20
2019-03-21T15:23:40.992Z,16.21
2019-03-21T15:25:48.996Z,16.12
2019-03-21T15:27:59.832Z,16.12
2019-03-21T15:30:52.296Z,16.13
2019-03-21T15:33:03.157Z,16.11
2019-03-21T15:35:55.602Z,16.01
2019-03-21T15:38:06.565Z,16.00
2019-03-21T15:40:17.481Z,16.03
2019-03-21T15:42:28.308Z,16.02
2019-03-21T15:44:39.120Z,16.03
2019-03-21T15:46:49.938Z,15.99
2019-03-21T15:49:00.760Z,16.00
2019-03-21T15:51:11.609Z,16.00
2019-03-21T15:53:22.410Z,15.97
2019-03-21T15:55:33.375Z,15.96
2019-03-21T15:57:44.190Z,15.99
2019-03-21T15:59:55.029Z,15.95
2019-03-21T16:02:05.851Z,15.88
2019-03-21T16:04:16.697Z,15.88
2019-03-21T16:06:27.490Z,15.93
2019-03-21T16:08:38.298Z,15.91
2019-03-21T16:10:49.128Z,15.93
2019-03-21T16:15:52.185Z,15.88
2019-03-21T16:18:44.641Z,15.88
2019-03-21T16:20:55.458Z,15.87
2019-03-21T16:23:06.251Z,15.93
2019-03-21T16:25:17.083Z,15.90
2019-03-21T16:27:27.898Z,15.89
2019-03-21T16:29:38.744Z,15.86
2019-03-21T16:31:49.581Z,15.84
2019-03-21T16:34:00.374Z,15.80
2019-03-21T16:36:11.314Z,15.80
2019-03-21T16:38:22.155Z,15.75
2019-03-21T16:40:33.003Z,15.72
2019-03-21T16:42:43.812Z,15.69
2019-03-21T16:44:54.618Z,15.70
2019-03-21T16:47:05.543Z,15.68
2019-03-21T16:49:16.332Z,15.65
2019-03-21T16:51:27.162Z,15.56
2019-03-21T16:53:38.076Z,15.51
2019-03-21T16:55:48.896Z,15.47
2019-03-21T16:57:59.716Z,15.45
2019-03-21T17:00:30.380Z,15.39
2019-03-21T17:02:41.186Z,15.34
2019-03-21T17:07:44.297Z,15.21
2019-03-21T17:09:57.838Z,15.23
2019-03-21T17:12:07.904Z,15.20
2019-03-21T17:14:18.736Z,15.13
2019-03-21T17:16:29.635Z,15.08
2019-03-21T17:18:40.590Z,15.11
2019-03-21T17:20:51.453Z,15.00
2019-03-21T17:23:02.390Z,14.95
2019-03-21T17:25:54.816Z,14.94
2019-03-21T17:28:05.695Z,14.89
2019-03-21T17:30:16.699Z,14.82
2019-03-21T17:32:27.618Z,14.70
2019-03-21T17:34:38.433Z,14.59
2019-03-21T17:36:49.226Z,14.48
2019-03-21T17:39:00.069Z,14.37
2019-03-21T17:41:10.889Z,14.27
2019-03-21T17:43:21.719Z,14.16
2019-03-21T17:45:32.651Z,14.03
2019-03-21T17:47:43.523Z,13.88
2019-03-21T17:49:54.309Z,13.70
2019-03-21T17:52:05.137Z,13.53
2019-03-21T17:54:15.967Z,13.35
2019-03-21T17:56:26.775Z,13.21
2019-03-21T17:58:37.607Z,13.06
2019-03-21T18:00:48.416Z,12.90
2019-03-21T18:02:59.247Z,12.76
2019-03-21T18:05:10.044Z,12.49
2019-03-21T18:07:20.886Z,12.26
2019-03-21T18:09:31.706Z,12.10
2019-03-21T18:11:42.560Z,12.16
2019-03-21T18:13:53.363Z,12.14
2019-03-21T18:16:04.282Z,11.99
2019-03-21T18:18:15.114Z,11.91
2019-03-21T18:20:26.152Z,11.81
2019-03-21T18:22:36.944Z,11.77
2019-03-21T18:24:53.739Z,11.69
2019-03-21T18:27:00.534Z,11.64
2019-03-21T18:29:11.336Z,11.54
2019-03-21T18:31:22.188Z,11.39
2019-03-21T18:33:32.991Z,11.27
2019-03-21T18:35:43.833Z,11.19
2019-03-21T18:37:54.659Z,11.04
2019-03-21T18:40:27.271Z,10.91
2019-03-21T18:42:38.071Z,10.85
2019-03-21T18:44:50.525Z,10.73
2019-03-21T18:47:01.649Z,10.69
2019-03-21T18:49:12.621Z,10.63
2019-03-21T18:51:23.447Z,10.51
2019-03-21T18:53:34.254Z,10.39
2019-03-21T18:55:45.212Z,10.24
2019-03-21T18:57:56.018Z,10.15
2019-03-21T19:00:26.724Z,10.12
2019-03-21T19:02:37.517Z,10.07
2019-03-21T19:04:48.323Z,9.97
2019-03-21T19:06:59.276Z,9.88
2019-03-21T19:09:10.170Z,9.88
2019-03-21T19:11:21.006Z,9.79
2019-03-21T19:13:31.796Z,9.68
2019-03-21T19:15:42.781Z,9.59
2019-03-21T19:17:53.636Z,9.57
2019-03-21T19:20:46.125Z,9.49
2019-03-21T19:22:56.962Z,9.34
2019-03-21T19:25:49.504Z,9.37
2019-03-21T19:28:00.329Z,9.31
2019-03-21T19:30:52.817Z,9.17
2019-03-21T19:33:03.741Z,9.10
2019-03-21T19:35:14.684Z,8.99
2019-03-21T19:37:25.568Z,8.97
2019-03-21T19:39:36.381Z,8.95
2019-03-21T19:41:47.227Z,8.94
2019-03-21T19:43:58.034Z,8.88
2019-03-21T19:46:08.888Z,8.90
2019-03-21T19:48:19.714Z,8.87
2019-03-21T19:50:30.535Z,8.79
2019-03-21T19:52:41.356Z,8.68
2019-03-21T19:54:52.171Z,8.57
2019-03-21T19:57:03.151Z,8.55
2019-03-21T19:59:13.989Z,8.54
2019-03-21T20:01:24.775Z,8.48
2019-03-21T20:03:35.634Z,8.46
2019-03-21T20:05:46.444Z,8.42
2019-03-21T20:07:57.303Z,8.37
2019-03-21T20:10:49.759Z,8.38
2019-03-21T20:13:00.600Z,8.35
2019-03-21T20:15:53.061Z,8.28
2019-03-21T20:18:04.038Z,8.26
2019-03-21T20:20:56.489Z,8.21
2019-03-21T20:23:07.327Z,8.16
2019-03-21T20:25:18.228Z,8.03
2019-03-21T20:27:29.055Z,8.00
2019-03-21T20:29:39.898Z,8.03
2019-03-21T20:31:50.860Z,8.05
2019-03-21T20:34:01.694Z,8.00
2019-03-21T20:36:12.494Z,8.01
2019-03-21T20:38:23.383Z,7.99
2019-03-21T20:40:34.217Z,8.04
2019-03-21T20:42:45.230Z,8.01
2019-03-21T20:44:56.161Z,7.90
2019-03-21T20:47:06.999Z,7.81
2019-03-21T20:49:17.826Z,7.73
2019-03-21T20:51:28.741Z,7.66
2019-03-21T20:53:39.544Z,7.61
2019-03-21T20:55:53.945Z,7.53
2019-03-21T20:58:03.204Z,7.50
2019-03-21T21:00:55.697Z,7.51
2019-03-21T21:03:06.513Z,7.50
2019-03-21T21:05:17.455Z,7.52
2019-03-21T21:07:28.284Z,7.46
2019-03-21T21:09:39.106Z,7.42
2019-03-21T21:11:49.959Z,7.38
2019-03-21T21:14:00.760Z,7.32
2019-03-21T21:16:11.608Z,7.25
2019-03-21T21:18:22.421Z,7.22
2019-03-21T21:20:33.237Z,7.09
2019-03-21T21:22:44.065Z,6.95
2019-03-21T21:24:54.907Z,6.86
2019-03-21T21:27:05.737Z,6.80
2019-03-21T21:29:16.566Z,6.79
2019-03-21T21:31:27.374Z,6.83
2019-03-21T21:33:38.192Z,6.87
2019-03-21T21:35:48.999Z,6.82
2019-03-21T21:37:59.862Z,6.83
2019-03-21T21:40:52.408Z,6.84
2019-03-21T21:43:03.527Z,6.77
2019-03-21T21:45:55.983Z,6.68
2019-03-21T21:48:06.833Z,6.66
2019-03-21T21:50:17.676Z,6.62
2019-03-21T21:52:28.521Z,6.56
2019-03-21T21:54:39.334Z,6.52
2019-03-21T21:56:50.139Z,6.40
2019-03-21T21:59:00.960Z,6.31
2019-03-21T22:01:11.803Z,6.21
2019-03-21T22:03:22.637Z,6.13
2019-03-21T22:05:33.427Z,6.05
2019-03-21T22:07:44.415Z,5.96
2019-03-21T22:09:55.387Z,5.96
2019-03-21T22:12:06.273Z,5.87
2019-03-21T22:14:17.180Z,5.77
2019-03-21T22:16:28.159Z,5.70
2019-03-21T22:18:39.408Z,5.69
2019-03-21T22:20:50.459Z,5.69
2019-03-21T22:23:01.295Z,5.57
2019-03-21T22:25:53.765Z,5.37
2019-03-21T22:28:04.628Z,5.28
2019-03-21T22:30:57.110Z,5.23
2019-03-21T22:33:08.036Z,5.28
2019-03-21T22:35:38.730Z,5.40
2019-03-21T22:37:49.553Z,5.40
2019-03-21T22:40:00.604Z,5.45
2019-03-21T22:42:11.407Z,5.48
2019-03-21T22:44:22.237Z,5.47
2019-03-21T22:46:33.068Z,5.43
2019-03-21T22:48:43.901Z,5.39
2019-03-21T22:50:54.690Z,5.33
2019-03-21T22:53:05.497Z,5.25
2019-03-21T22:55:16.348Z,5.15
2019-03-21T22:57:27.162Z,5.04
2019-03-21T22:59:37.996Z,5.00
2019-03-21T23:01:48.788Z,5.02
2019-03-21T23:03:59.720Z,5.06
2019-03-21T23:06:10.529Z,5.08
2019-03-21T23:08:21.321Z,5.13
2019-03-21T23:10:32.158Z,5.20
2019-03-21T23:12:43.054Z,5.28
2019-03-21T23:14:53.994Z,5.34
2019-03-21T23:17:04.765Z,5.36
2019-03-21T23:19:15.614Z,5.38
2019-03-21T23:21:26.421Z,5.32
2019-03-21T23:23:37.296Z,5.18
2019-03-21T23:25:48.117Z,5.03
2019-03-21T23:27:58.906Z,4.92
2019-03-21T23:30:33.417Z,4.74
2019-03-21T23:32:44.302Z,4.56
2019-03-21T23:34:55.113Z,4.49
2019-03-21T23:37:05.924Z,4.41
2019-03-21T23:39:16.762Z,4.31
2019-03-21T23:41:27.573Z,4.31
2019-03-21T23:43:38.389Z,4.32
2019-03-21T23:45:49.219Z,4.34
2019-03-21T23:48:00.037Z,4.38
2019-03-21T23:50:52.491Z,4.40
2019-03-21T23:53:03.328Z,4.44
2019-03-21T23:55:14.152Z,4.50
2019-03-21T23:57:25.083Z,4.52
2019-03-21T23:59:35.889Z,4.56
